Terminal Aerodrome Forecast (TAF)

TAF

Data at: 1705 UTC 02 Jul 2022

TAF for:NVSC (Sola/Vanua Lava Arpt, TO, VU) issued at 1100 UTC 02 Jul 2022
Text:TAF NVSC 021100Z 0212/0312 VRB04KT 9999 SCT020
Forecast period:1200 UTC 02 July 2022 to 1200 UTC 03 July 2022
Forecast type:FROM: standard forecast or significant change
Winds:variable direction winds at 5 MPH (4 knots; 2.1 m/s)
Visibility:6 or more sm (10+ km)
Ceiling:at least 12,000 feet AGL
Clouds: scattered clouds at 2000 feet AGL
Text:INTER 0212/0218 9000 -SHRA BKN018
Forecast period:1200 to 1800 UTC 02 July 2022
Forecast type:TEMPORARY: The following changes expected for less than half the time period
Visibility: 6 sm ( 9 km)
Ceiling:1800 feet AGL
Clouds: broken clouds at 1800 feet AGL
Weather:-SHRA (light rain showers)

TAF

Data at: 1705 UTC 02 Jul 2022

TAF for:NVSG (Longana Arpt, PA, VU) issued at 1100 UTC 02 Jul 2022
Text:TAF NVSG 021100Z 0212/0312 09010KT 9999 SCT020
Forecast period:1200 UTC 02 July 2022 to 1200 UTC 03 July 2022
Forecast type:FROM: standard forecast or significant change
Winds:from the E (90 degrees) at 12 MPH (10 knots; 5.1 m/s)
Visibility:6 or more sm (10+ km)
Ceiling:at least 12,000 feet AGL
Clouds: scattered clouds at 2000 feet AGL
Text:INTER 0212/0218 9000 -SHRA BKN018
Forecast period:1200 to 1800 UTC 02 July 2022
Forecast type:TEMPORARY: The following changes expected for less than half the time period
Visibility: 6 sm ( 9 km)
Ceiling:1800 feet AGL
Clouds: broken clouds at 1800 feet AGL
Weather:-SHRA (light rain showers)

TAF

Data at: 1705 UTC 02 Jul 2022

TAF for:NVSS (Santo/Pekoa Intl, SA, VU) issued at 1100 UTC 02 Jul 2022
Text:TAF NVSS 021100Z 0212/0312 10010KT 9999 SCT020
Forecast period:1200 UTC 02 July 2022 to 1200 UTC 03 July 2022
Forecast type:FROM: standard forecast or significant change
Winds:from the E (100 degrees) at 12 MPH (10 knots; 5.1 m/s)
Visibility:6 or more sm (10+ km)
Ceiling:at least 12,000 feet AGL
Clouds: scattered clouds at 2000 feet AGL
Text:INTER 0212/0218 9000 -SHRA BKN018
Forecast period:1200 to 1800 UTC 02 July 2022
Forecast type:TEMPORARY: The following changes expected for less than half the time period
Visibility: 6 sm ( 9 km)
Ceiling:1800 feet AGL
Clouds: broken clouds at 1800 feet AGL
Weather:-SHRA (light rain showers)

TAF

Data at: 1705 UTC 02 Jul 2022

TAF for:NVSL (Malekula Isl/Lamap, MA, VU) issued at 1100 UTC 02 Jul 2022
Text:TAF NVSL 021100Z 0212/0312 10010KT 9999 SCT020 BKN040
Forecast period:1200 UTC 02 July 2022 to 1200 UTC 03 July 2022
Forecast type:FROM: standard forecast or significant change
Winds:from the E (100 degrees) at 12 MPH (10 knots; 5.1 m/s)
Visibility:6 or more sm (10+ km)
Ceiling:4000 feet AGL
Clouds: scattered clouds at 2000 feet AGL, broken clouds at 4000 feet AGL
Text:INTER 0212/0218 9000 -SHRA BKN018
Forecast period:1200 to 1800 UTC 02 July 2022
Forecast type:TEMPORARY: The following changes expected for less than half the time period
Visibility: 6 sm ( 9 km)
Ceiling:1800 feet AGL
Clouds: broken clouds at 1800 feet AGL
Weather:-SHRA (light rain showers)

TAF

Data at: 1705 UTC 02 Jul 2022

TAF for:NVSP (Norsup Arpt, MA, VU) issued at 1100 UTC 02 Jul 2022
Text:TAF NVSP 021100Z 0212/0312 13010KT 9999 SCT020
Forecast period:1200 UTC 02 July 2022 to 1200 UTC 03 July 2022
Forecast type:FROM: standard forecast or significant change
Winds:from the SE (130 degrees) at 12 MPH (10 knots; 5.1 m/s)
Visibility:6 or more sm (10+ km)
Ceiling:at least 12,000 feet AGL
Clouds: scattered clouds at 2000 feet AGL

TAF

Data at: 1705 UTC 02 Jul 2022

TAF for:NVVV (Efate/Bauerfield Int, SE, VU) issued at 1100 UTC 02 Jul 2022
Text:TAF NVVV 021100Z 0212/0312 09005KT 9999 BKN020
Forecast period:1200 UTC 02 July 2022 to 1200 UTC 03 July 2022
Forecast type:FROM: standard forecast or significant change
Winds:from the E (90 degrees) at 6 MPH (5 knots; 2.6 m/s)
Visibility:6 or more sm (10+ km)
Ceiling:2000 feet AGL
Clouds: broken clouds at 2000 feet AGL
Text:INTER 0212/0218 9000 -SHRA BKN018
Forecast period:1200 to 1800 UTC 02 July 2022
Forecast type:TEMPORARY: The following changes expected for less than half the time period
Visibility: 6 sm ( 9 km)
Ceiling:1800 feet AGL
Clouds: broken clouds at 1800 feet AGL
Weather:-SHRA (light rain showers)

TAF

Data at: 1705 UTC 02 Jul 2022

TAF for:NVVW (Tanna Arpt, TA, VU) issued at 1100 UTC 02 Jul 2022
Text:TAF NVVW 021100Z 0212/0312 VRB04KT 9999 BKN020
Forecast period:1200 UTC 02 July 2022 to 1200 UTC 03 July 2022
Forecast type:FROM: standard forecast or significant change
Winds:variable direction winds at 5 MPH (4 knots; 2.1 m/s)
Visibility:6 or more sm (10+ km)
Ceiling:2000 feet AGL
Clouds: broken clouds at 2000 feet AGL
Text:INTER 0212/0218 9000 SHRA BKN018
Forecast period:1200 to 1800 UTC 02 July 2022
Forecast type:TEMPORARY: The following changes expected for less than half the time period
Visibility: 6 sm ( 9 km)
Ceiling:1800 feet AGL
Clouds: broken clouds at 1800 feet AGL
Weather:SHRA (rain showers)

TAF

Data at: 1705 UTC 02 Jul 2022

TAF for:NVVA (Aneityum/Mystery Isl, TA, VU) issued at 1100 UTC 02 Jul 2022
Text:TAF NVVA 021100Z 0212/0312 VRB04KT 9999 BKN020 OVC040
Forecast period:1200 UTC 02 July 2022 to 1200 UTC 03 July 2022
Forecast type:FROM: standard forecast or significant change
Winds:variable direction winds at 5 MPH (4 knots; 2.1 m/s)
Visibility:6 or more sm (10+ km)
Ceiling:2000 feet AGL
Clouds: broken clouds at 2000 feet AGL, overcast cloud deck at 4000 feet AGL
Text:INTER 0212/0218 9000 SHRA BKN018
Forecast period:1200 to 1800 UTC 02 July 2022
Forecast type:TEMPORARY: The following changes expected for less than half the time period
Visibility: 6 sm ( 9 km)
Ceiling:1800 feet AGL
Clouds: broken clouds at 1800 feet AGL
Weather:SHRA (rain showers)

TAF

Data at: 1705 UTC 02 Jul 2022

TAF NVVV 021100Z 0212/0312 09005KT 9999 BKN020
  INTER 0212/0218 9000 -SHRA BKN018
TAF NVSC 021100Z 0212/0312 VRB04KT 9999 SCT020
  INTER 0212/0218 9000 -SHRA BKN018
TAF NVSG 021100Z 0212/0312 09010KT 9999 SCT020
  INTER 0212/0218 9000 -SHRA BKN018
TAF NVSS 021100Z 0212/0312 10010KT 9999 SCT020
  INTER 0212/0218 9000 -SHRA BKN018
TAF NVSL 021100Z 0212/0312 10010KT 9999 SCT020 BKN040
  INTER 0212/0218 9000 -SHRA BKN018
TAF NVSP 021100Z 0212/0312 13010KT 9999 SCT020
TAF NVVW 021100Z 0212/0312 VRB04KT 9999 BKN020
  INTER 0212/0218 9000 SHRA BKN018
TAF NVVA 021100Z 0212/0312 VRB04KT 9999 BKN020 OVC040
  INTER 0212/0218 9000 SHRA BKN018